sensor_id;sensor_type;location;lat;lon;timestamp;pressure;altitude;pressure_sealevel;temperature;humidity
18765;BME280;9511;54.242;12.448;2023-02-21T04:04:13;100793.91;;;5.56;93.18
18765;BME280;9511;54.242;12.448;2023-02-21T04:06:42;100788.56;;;5.55;93.28
18765;BME280;9511;54.242;12.448;2023-02-21T04:09:10;100776.53;;;5.60;92.93
18765;BME280;9511;54.242;12.448;2023-02-21T04:11:39;100776.59;;;5.62;92.89
18765;BME280;9511;54.242;12.448;2023-02-21T04:14:08;100772.91;;;5.56;93.20
18765;BME280;9511;54.242;12.448;2023-02-21T04:16:36;100793.13;;;5.59;92.83
18765;BME280;9511;54.242;12.448;2023-02-21T04:19:03;100773.19;;;5.63;92.80
18765;BME280;9511;54.242;12.448;2023-02-21T04:21:32;100756.31;;;5.57;92.60
18765;BME280;9511;54.242;12.448;2023-02-21T04:24:00;100751.91;;;5.56;92.34
18765;BME280;9511;54.242;12.448;2023-02-21T04:26:30;100753.56;;;5.54;92.26
18765;BME280;9511;54.242;12.448;2023-02-21T04:29:00;100757.78;;;5.51;92.18
18765;BME280;9511;54.242;12.448;2023-02-21T04:31:28;100773.31;;;5.46;92.34
18765;BME280;9511;54.242;12.448;2023-02-21T04:33:58;100779.16;;;5.41;92.58
18765;BME280;9511;54.242;12.448;2023-02-21T04:36:26;100774.38;;;5.32;93.08
18765;BME280;9511;54.242;12.448;2023-02-21T04:38:55;100781.41;;;5.33;93.44
18765;BME280;9511;54.242;12.448;2023-02-21T04:41:22;100785.66;;;5.29;93.95
18765;BME280;9511;54.242;12.448;2023-02-21T04:43:50;100781.97;;;5.26;94.01
18765;BME280;9511;54.242;12.448;2023-02-21T04:46:18;100776.44;;;5.20;94.48
18765;BME280;9511;54.242;12.448;2023-02-21T04:48:48;100780.13;;;5.23;94.61
18765;BME280;9511;54.242;12.448;2023-02-21T04:51:19;100764.16;;;5.19;95.19
18765;BME280;9511;54.242;12.448;2023-02-21T04:53:48;100775.31;;;5.15;95.72
18765;BME280;9511;54.242;12.448;2023-02-21T04:56:19;100775.03;;;5.09;96.14
18765;BME280;9511;54.242;12.448;2023-02-21T04:58:47;100761.66;;;5.02;96.74
18765;BME280;9511;54.242;12.448;2023-02-21T05:01:16;100767.78;;;5.03;97.45
18765;BME280;9511;54.242;12.448;2023-02-21T05:03:44;100761.66;;;5.02;97.66
18765;BME280;9511;54.242;12.448;2023-02-21T05:06:16;100781.72;;;5.02;97.92
18765;BME280;9511;54.242;12.448;2023-02-21T05:08:43;100800.31;;;5.06;97.83
18765;BME280;9511;54.242;12.448;2023-02-21T05:11:10;100793.25;;;5.05;97.66
18765;BME280;9511;54.242;12.448;2023-02-21T05:13:39;100806.78;;;5.15;96.77
18765;BME280;9511;54.242;12.448;2023-02-21T05:16:06;100799.63;;;5.11;97.00
18765;BME280;9511;54.242;12.448;2023-02-21T05:18:33;100798.50;;;5.05;97.24
18765;BME280;9511;54.242;12.448;2023-02-21T05:21:03;100803.47;;;4.99;97.70
18765;BME280;9511;54.242;12.448;2023-02-21T05:23:32;100825.22;;;4.98;98.13
18765;BME280;9511;54.242;12.448;2023-02-21T05:26:05;100798.22;;;4.99;98.29
18765;BME280;9511;54.242;12.448;2023-02-21T05:28:34;100805.53;;;5.06;98.32
18765;BME280;9511;54.242;12.448;2023-02-21T05:31:04;100794.28;;;5.09;97.85
18765;BME280;9511;54.242;12.448;2023-02-21T05:33:31;100820.66;;;5.12;97.45
18765;BME280;9511;54.242;12.448;2023-02-21T05:35:59;100805.97;;;5.16;97.05
18765;BME280;9511;54.242;12.448;2023-02-21T05:38:26;100820.34;;;5.24;96.66
18765;BME280;9511;54.242;12.448;2023-02-21T05:40:53;100813.31;;;5.23;96.26
18765;BME280;9511;54.242;12.448;2023-02-21T05:43:20;100801.03;;;5.22;96.26
18765;BME280;9511;54.242;12.448;2023-02-21T05:45:48;100809.56;;;5.18;96.38
18765;BME280;9511;54.242;12.448;2023-02-21T05:48:17;100814.03;;;5.20;96.20
18765;BME280;9511;54.242;12.448;2023-02-21T05:50:44;100835.91;;;5.21;95.96
18765;BME280;9511;54.242;12.448;2023-02-21T05:53:11;100823.66;;;5.20;96.05
18765;BME280;9511;54.242;12.448;2023-02-21T05:55:38;100809.63;;;5.19;95.85
18765;BME280;9511;54.242;12.448;2023-02-21T05:58:05;100825.31;;;5.18;95.82
18765;BME280;9511;54.242;12.448;2023-02-21T06:00:33;100818.28;;;5.17;95.63
18765;BME280;9511;54.242;12.448;2023-02-21T06:03:00;100800.59;;;5.13;95.73
18765;BME280;9511;54.242;12.448;2023-02-21T06:05:28;100814.38;;;5.09;95.72
18765;BME280;9511;54.242;12.448;2023-02-21T06:07:56;100824.72;;;5.05;95.94
18765;BME280;9511;54.242;12.448;2023-02-21T06:10:23;100836.16;;;5.07;96.05
18765;BME280;9511;54.242;12.448;2023-02-21T06:12:51;100836.00;;;5.04;95.97
18765;BME280;9511;54.242;12.448;2023-02-21T06:15:18;100834.16;;;5.02;96.41
18765;BME280;9511;54.242;12.448;2023-02-21T06:17:45;100847.94;;;4.98;96.47
18765;BME280;9511;54.242;12.448;2023-02-21T06:20:13;100840.00;;;4.96;96.89
18765;BME280;9511;54.242;12.448;2023-02-21T06:22:43;100847.19;;;5.00;97.17
18765;BME280;9511;54.242;12.448;2023-02-21T06:25:10;100850.16;;;5.26;97.71
18765;BME280;9511;54.242;12.448;2023-02-21T06:27:37;100866.19;;;5.32;97.04
18765;BME280;9511;54.242;12.448;2023-02-21T06:30:05;100878.47;;;5.33;96.71
18765;BME280;9511;54.242;12.448;2023-02-21T06:32:33;100867.97;;;5.33;96.48
18765;BME280;9511;54.242;12.448;2023-02-21T06:35:00;100859.31;;;5.34;96.16
18765;BME280;9511;54.242;12.448;2023-02-21T06:37:27;100865.50;;;5.36;95.82
18765;BME280;9511;54.242;12.448;2023-02-21T06:39:56;100877.72;;;5.36;96.02
18765;BME280;9511;54.242;12.448;2023-02-21T06:42:23;100873.09;;;5.30;95.73
18765;BME280;9511;54.242;12.448;2023-02-21T06:44:51;100886.66;;;5.39;95.85
18765;BME280;9511;54.242;12.448;2023-02-21T06:47:18;100896.03;;;5.34;95.63
18765;BME280;9511;54.242;12.448;2023-02-21T06:49:45;100883.72;;;5.33;95.41
18765;BME280;9511;54.242;12.448;2023-02-21T06:52:13;100898.44;;;5.29;95.45
18765;BME280;9511;54.242;12.448;2023-02-21T06:54:40;100899.31;;;5.30;95.18
18765;BME280;9511;54.242;12.448;2023-02-21T06:57:09;100897.34;;;5.44;95.21
18765;BME280;9511;54.242;12.448;2023-02-21T06:59:36;100899.91;;;5.42;94.98
18765;BME280;9511;54.242;12.448;2023-02-21T07:02:03;100898.78;;;5.37;94.67
18765;BME280;9511;54.242;12.448;2023-02-21T07:04:31;100890.50;;;5.28;94.46
18765;BME280;9511;54.242;12.448;2023-02-21T07:06:58;100895.50;;;5.23;94.51
18765;BME280;9511;54.242;12.448;2023-02-21T07:09:25;100921.72;;;5.23;94.51
18765;BME280;9511;54.242;12.448;2023-02-21T07:11:52;100914.75;;;5.24;94.67
18765;BME280;9511;54.242;12.448;2023-02-21T07:14:21;100910.47;;;5.26;94.71
18765;BME280;9511;54.242;12.448;2023-02-21T07:16:48;100893.91;;;5.27;94.38
18765;BME280;9511;54.242;12.448;2023-02-21T07:19:16;100918.50;;;5.29;94.48
18765;BME280;9511;54.242;12.448;2023-02-21T07:21:44;100917.00;;;5.34;94.06
18765;BME280;9511;54.242;12.448;2023-02-21T07:24:12;100923.88;;;5.32;93.91
18765;BME280;9511;54.242;12.448;2023-02-21T07:26:39;100928.47;;;5.36;93.76
18765;BME280;9511;54.242;12.448;2023-02-21T07:29:07;100938.59;;;5.46;93.32
18765;BME280;9511;54.242;12.448;2023-02-21T07:31:35;100953.78;;;5.53;92.67
18765;BME280;9511;54.242;12.448;2023-02-21T07:34:03;100959.25;;;5.58;92.13
18765;BME280;9511;54.242;12.448;2023-02-21T07:36:30;100946.09;;;5.56;92.20
18765;BME280;9511;54.242;12.448;2023-02-21T07:38:58;100943.66;;;5.61;91.89
18765;BME280;9511;54.242;12.448;2023-02-21T07:41:25;100956.72;;;5.59;91.88
18765;BME280;9511;54.242;12.448;2023-02-21T07:43:52;100948.84;;;5.59;91.86
18765;BME280;9511;54.242;12.448;2023-02-21T07:46:19;100959.41;;;5.61;91.94
18765;BME280;9511;54.242;12.448;2023-02-21T07:48:48;100959.63;;;5.66;92.17
18765;BME280;9511;54.242;12.448;2023-02-21T07:51:15;100966.59;;;5.65;92.19
18765;BME280;9511;54.242;12.448;2023-02-21T07:53:43;100959.63;;;5.66;92.21
18765;BME280;9511;54.242;12.448;2023-02-21T07:56:12;100965.09;;;5.70;92.47
18765;BME280;9511;54.242;12.448;2023-02-21T07:58:39;100971.25;;;5.71;92.18
18765;BME280;9511;54.242;12.448;2023-02-21T08:01:06;100988.78;;;5.72;92.44
18765;BME280;9511;54.242;12.448;2023-02-21T08:03:33;100989.97;;;5.78;92.45
18765;BME280;9511;54.242;12.448;2023-02-21T08:06:04;100998.91;;;5.82;92.08
18765;BME280;9511;54.242;12.448;2023-02-21T08:08:31;100998.06;;;5.83;92.54
18765;BME280;9511;54.242;12.448;2023-02-21T08:10:58;101006.84;;;5.83;92.30
18765;BME280;9511;54.242;12.448;2023-02-21T08:13:25;101007.84;;;5.85;92.17
18765;BME280;9511;54.242;12.448;2023-02-21T08:15:53;101006.31;;;5.91;91.81
18765;BME280;9511;54.242;12.448;2023-02-21T08:18:21;101014.59;;;5.98;91.78
18765;BME280;9511;54.242;12.448;2023-02-21T08:20:49;101023.66;;;6.05;91.68
18765;BME280;9511;54.242;12.448;2023-02-21T08:23:19;101022.09;;;6.08;91.36
18765;BME280;9511;54.242;12.448;2023-02-21T08:25:46;101011.44;;;6.05;91.08
18765;BME280;9511;54.242;12.448;2023-02-21T08:28:14;101023.00;;;6.09;91.13
18765;BME280;9511;54.242;12.448;2023-02-21T08:30:41;101020.13;;;6.04;91.67
18765;BME280;9511;54.242;12.448;2023-02-21T08:33:09;101024.63;;;6.07;91.42
18765;BME280;9511;54.242;12.448;2023-02-21T08:35:36;101014.13;;;6.07;91.62
18765;BME280;9511;54.242;12.448;2023-02-21T08:38:03;101021.25;;;6.09;91.58
18765;BME280;9511;54.242;12.448;2023-02-21T08:40:32;101029.25;;;6.12;91.33
18765;BME280;9511;54.242;12.448;2023-02-21T08:42:59;101032.88;;;6.15;91.26
18765;BME280;9511;54.242;12.448;2023-02-21T08:45:27;101040.22;;;6.22;91.07
18765;BME280;9511;54.242;12.448;2023-02-21T08:47:55;101031.44;;;6.21;90.96
18765;BME280;9511;54.242;12.448;2023-02-21T08:50:25;101038.13;;;6.15;91.14
18765;BME280;9511;54.242;12.448;2023-02-21T08:52:54;101039.31;;;6.21;91.13
18765;BME280;9511;54.242;12.448;2023-02-21T08:55:22;101044.63;;;6.23;90.58
18765;BME280;9511;54.242;12.448;2023-02-21T08:57:52;101046.19;;;6.37;90.92
18765;BME280;9511;54.242;12.448;2023-02-21T09:00:22;101057.50;;;6.36;90.52
18765;BME280;9511;54.242;12.448;2023-02-21T09:02:50;101051.28;;;6.34;90.02
18765;BME280;9511;54.242;12.448;2023-02-21T09:05:20;101061.34;;;6.43;90.00
18765;BME280;9511;54.242;12.448;2023-02-21T09:07:50;101053.25;;;6.38;89.62
18765;BME280;9511;54.242;12.448;2023-02-21T09:10:20;101070.94;;;6.42;89.80
18765;BME280;9511;54.242;12.448;2023-02-21T09:12:47;101064.94;;;6.45;90.06
18765;BME280;9511;54.242;12.448;2023-02-21T09:15:16;101064.16;;;6.47;89.93
18765;BME280;9511;54.242;12.448;2023-02-21T09:17:44;101068.69;;;6.50;89.05
18765;BME280;9511;54.242;12.448;2023-02-21T09:20:16;101071.38;;;6.51;88.99
18765;BME280;9511;54.242;12.448;2023-02-21T09:22:44;101064.44;;;6.53;89.14
18765;BME280;9511;54.242;12.448;2023-02-21T09:25:12;101064.72;;;6.59;88.48
18765;BME280;9511;54.242;12.448;2023-02-21T09:27:40;101073.72;;;6.64;88.78
18765;BME280;9511;54.242;12.448;2023-02-21T09:30:10;101077.47;;;6.70;88.60
18765;BME280;9511;54.242;12.448;2023-02-21T09:32:40;101069.09;;;6.78;88.63
18765;BME280;9511;54.242;12.448;2023-02-21T09:35:08;101086.72;;;6.81;88.54
18765;BME280;9511;54.242;12.448;2023-02-21T09:37:38;101067.59;;;6.83;88.13
18765;BME280;9511;54.242;12.448;2023-02-21T09:40:11;101090.16;;;6.78;87.86
18765;BME280;9511;54.242;12.448;2023-02-21T09:42:41;101102.50;;;6.81;87.94
18765;BME280;9511;54.242;12.448;2023-02-21T09:45:13;101137.06;;;6.88;88.00
18765;BME280;9511;54.242;12.448;2023-02-21T09:47:44;101100.78;;;6.81;87.76
18765;BME280;9511;54.242;12.448;2023-02-21T09:50:14;101102.66;;;6.84;87.64
18765;BME280;9511;54.242;12.448;2023-02-21T09:52:42;101115.25;;;6.91;88.18
18765;BME280;9511;54.242;12.448;2023-02-21T09:55:15;101120.16;;;7.03;87.43
18765;BME280;9511;54.242;12.448;2023-02-21T09:57:46;101111.66;;;7.08;86.88
18765;BME280;9511;54.242;12.448;2023-02-21T10:00:20;101113.06;;;7.00;86.77
18765;BME280;9511;54.242;12.448;2023-02-21T10:03:09;101131.84;;;7.09;86.70
18765;BME280;9511;54.242;12.448;2023-02-21T10:05:45;101131.13;;;7.12;86.66
18765;BME280;9511;54.242;12.448;2023-02-21T10:08:18;101123.28;;;7.13;86.33
18765;BME280;9511;54.242;12.448;2023-02-21T10:10:49;101116.34;;;7.15;85.93
18765;BME280;9511;54.242;12.448;2023-02-21T10:13:31;101113.72;;;7.35;86.19
18765;BME280;9511;54.242;12.448;2023-02-21T10:16:04;101126.41;;;7.45;85.57
18765;BME280;9511;54.242;12.448;2023-02-21T10:18:38;101139.66;;;7.47;85.13
18765;BME280;9511;54.242;12.448;2023-02-21T10:21:14;101130.41;;;7.35;84.78
18765;BME280;9511;54.242;12.448;2023-02-21T10:23:44;101122.97;;;7.46;84.74
18765;BME280;9511;54.242;12.448;2023-02-21T10:26:15;101137.28;;;7.53;84.95
18765;BME280;9511;54.242;12.448;2023-02-21T10:28:44;101119.44;;;7.45;84.91
18765;BME280;9511;54.242;12.448;2023-02-21T10:31:15;101140.28;;;7.41;84.32
18765;BME280;9511;54.242;12.448;2023-02-21T10:33:46;101138.28;;;7.35;84.90
18765;BME280;9511;54.242;12.448;2023-02-21T10:36:16;101130.50;;;7.38;84.54
18765;BME280;9511;54.242;12.448;2023-02-21T10:38:49;101135.25;;;7.45;84.24
18765;BME280;9511;54.242;12.448;2023-02-21T10:41:21;101140.50;;;7.66;84.51
18765;BME280;9511;54.242;12.448;2023-02-21T10:43:52;101160.09;;;7.73;83.54
18765;BME280;9511;54.242;12.448;2023-02-21T10:46:26;101150.56;;;7.56;83.41
18765;BME280;9511;54.242;12.448;2023-02-21T10:49:17;101158.09;;;7.67;83.70
18765;BME280;9511;54.242;12.448;2023-02-21T10:51:45;101153.41;;;7.60;84.08
18765;BME280;9511;54.242;12.448;2023-02-21T10:54:17;101161.19;;;7.57;83.88
18765;BME280;9511;54.242;12.448;2023-02-21T10:56:46;101182.44;;;7.62;83.65
18765;BME280;9511;54.242;12.448;2023-02-21T10:59:19;101167.84;;;7.49;83.27
18765;BME280;9511;54.242;12.448;2023-02-21T11:01:48;101170.47;;;7.49;83.28
18765;BME280;9511;54.242;12.448;2023-02-21T11:04:26;101173.66;;;7.42;83.41
18765;BME280;9511;54.242;12.448;2023-02-21T11:06:55;101161.13;;;7.36;84.06
18765;BME280;9511;54.242;12.448;2023-02-21T11:09:31;101172.50;;;7.35;83.66
18765;BME280;9511;54.242;12.448;2023-02-21T11:12:00;101173.25;;;7.52;83.99
18765;BME280;9511;54.242;12.448;2023-02-21T11:14:28;101184.75;;;7.54;83.25
18765;BME280;9511;54.242;12.448;2023-02-21T11:17:17;101173.41;;;7.76;83.21
18765;BME280;9511;54.242;12.448;2023-02-21T11:19:54;101170.88;;;7.79;83.17
18765;BME280;9511;54.242;12.448;2023-02-21T11:22:23;101156.53;;;7.92;82.24
18765;BME280;9511;54.242;12.448;2023-02-21T11:24:58;101167.06;;;7.92;81.43
18765;BME280;9511;54.242;12.448;2023-02-21T11:27:27;101181.97;;;7.91;81.49
18765;BME280;9511;54.242;12.448;2023-02-21T11:29:55;101172.34;;;7.92;81.68
18765;BME280;9511;54.242;12.448;2023-02-21T11:32:26;101188.78;;;7.86;81.40
18765;BME280;9511;54.242;12.448;2023-02-21T11:35:13;101179.34;;;7.91;81.46
18765;BME280;9511;54.242;12.448;2023-02-21T11:37:49;101183.63;;;7.68;81.19
18765;BME280;9511;54.242;12.448;2023-02-21T11:40:30;101162.09;;;7.79;81.36
18765;BME280;9511;54.242;12.448;2023-02-21T11:43:12;101174.50;;;7.81;80.87
18765;BME280;9511;54.242;12.448;2023-02-21T11:45:50;101180.09;;;7.89;81.14
18765;BME280;9511;54.242;12.448;2023-02-21T11:48:22;101196.03;;;7.92;80.80
18765;BME280;9511;54.242;12.448;2023-02-21T11:51:01;101189.88;;;7.91;80.39
18765;BME280;9511;54.242;12.448;2023-02-21T11:53:36;101185.69;;;7.76;80.70
18765;BME280;9511;54.242;12.448;2023-02-21T11:56:14;101193.28;;;8.10;80.37
18765;BME280;9511;54.242;12.448;2023-02-21T11:58:50;101212.28;;;8.23;79.83
18765;BME280;9511;54.242;12.448;2023-02-21T12:01:23;101178.88;;;8.22;80.02
18765;BME280;9511;54.242;12.448;2023-02-21T12:04:14;101194.19;;;8.10;80.30
18765;BME280;9511;54.242;12.448;2023-02-21T12:06:49;101195.44;;;8.20;79.73
18765;BME280;9511;54.242;12.448;2023-02-21T12:09:25;101179.47;;;8.36;80.17
18765;BME280;9511;54.242;12.448;2023-02-21T12:12:05;101185.16;;;8.47;78.89
18765;BME280;9511;54.242;12.448;2023-02-21T12:14:41;101195.97;;;8.75;78.71
18765;BME280;9511;54.242;12.448;2023-02-21T12:17:38;101190.75;;;8.77;78.01
18765;BME280;9511;54.242;12.448;2023-02-21T12:20:24;101193.56;;;8.82;78.02
18765;BME280;9511;54.242;12.448;2023-02-21T12:23:06;101196.50;;;8.44;78.48
18765;BME280;9511;54.242;12.448;2023-02-21T12:25:43;101186.84;;;8.45;78.33
18765;BME280;9511;54.242;12.448;2023-02-21T12:28:20;101192.09;;;8.24;78.48
18765;BME280;9511;54.242;12.448;2023-02-21T12:31:02;101199.41;;;8.31;79.25
18765;BME280;9511;54.242;12.448;2023-02-21T12:33:41;101196.03;;;8.34;78.48
18765;BME280;9511;54.242;12.448;2023-02-21T12:36:29;101203.56;;;8.45;78.94
18765;BME280;9511;54.242;12.448;2023-02-21T12:39:10;101210.34;;;8.19;79.27
18765;BME280;9511;54.242;12.448;2023-02-21T12:44:52;101198.34;;;8.26;79.40
18765;BME280;9511;54.242;12.448;2023-02-21T12:47:26;101206.09;;;8.65;78.41
18765;BME280;9511;54.242;12.448;2023-02-21T12:50:00;101202.69;;;8.67;78.10
18765;BME280;9511;54.242;12.448;2023-02-21T12:52:30;101191.66;;;8.55;77.14
18765;BME280;9511;54.242;12.448;2023-02-21T12:55:04;101192.63;;;8.57;77.80
18765;BME280;9511;54.242;12.448;2023-02-21T12:57:41;101205.75;;;8.78;77.45
18765;BME280;9511;54.242;12.448;2023-02-21T13:00:15;101197.34;;;9.35;76.30
18765;BME280;9511;54.242;12.448;2023-02-21T13:02:51;101203.84;;;9.68;74.77
18765;BME280;9511;54.242;12.448;2023-02-21T13:05:26;101203.09;;;9.47;74.11
18765;BME280;9511;54.242;12.448;2023-02-21T13:08:01;101200.78;;;9.32;74.29
18765;BME280;9511;54.242;12.448;2023-02-21T13:10:47;101200.72;;;9.30;73.90
18765;BME280;9511;54.242;12.448;2023-02-21T13:13:18;101193.66;;;9.53;74.37
18765;BME280;9511;54.242;12.448;2023-02-21T13:15:48;101203.75;;;9.65;73.42
18765;BME280;9511;54.242;12.448;2023-02-21T13:18:22;101203.38;;;10.04;72.80
18765;BME280;9511;54.242;12.448;2023-02-21T13:20:53;101208.44;;;9.98;71.77
18765;BME280;9511;54.242;12.448;2023-02-21T13:23:22;101212.44;;;10.12;72.39
18765;BME280;9511;54.242;12.448;2023-02-21T13:26:04;101215.66;;;10.27;71.71
18765;BME280;9511;54.242;12.448;2023-02-21T13:28:37;101203.41;;;10.31;71.21
18765;BME280;9511;54.242;12.448;2023-02-21T13:31:17;101198.16;;;10.07;71.58
18765;BME280;9511;54.242;12.448;2023-02-21T13:33:49;101220.25;;;9.58;71.72
18765;BME280;9511;54.242;12.448;2023-02-21T13:36:22;101222.06;;;9.84;72.12
18765;BME280;9511;54.242;12.448;2023-02-21T13:39:04;101224.38;;;10.01;71.85
18765;BME280;9511;54.242;12.448;2023-02-21T13:41:39;101239.72;;;10.62;70.31
18765;BME280;9511;54.242;12.448;2023-02-21T13:44:10;101223.25;;;10.72;68.92
18765;BME280;9511;54.242;12.448;2023-02-21T13:47:04;101207.59;;;10.78;68.65
18765;BME280;9511;54.242;12.448;2023-02-21T13:49:53;101216.09;;;11.25;67.76
18765;BME280;9511;54.242;12.448;2023-02-21T13:52:34;101212.00;;;10.51;67.95
18765;BME280;9511;54.242;12.448;2023-02-21T13:55:29;101221.47;;;10.19;68.68
18765;BME280;9511;54.242;12.448;2023-02-21T13:58:33;101219.06;;;9.99;69.55
18765;BME280;9511;54.242;12.448;2023-02-21T14:01:22;101226.13;;;9.04;71.14
18765;BME280;9511;54.242;12.448;2023-02-21T14:07:54;101232.19;;;8.80;73.98
18765;BME280;9511;54.242;12.448;2023-02-21T14:10:30;101234.22;;;8.64;74.37
18765;BME280;9511;54.242;12.448;2023-02-21T14:13:00;101230.47;;;8.59;74.42
18765;BME280;9511;54.242;12.448;2023-02-21T14:15:38;101229.94;;;8.45;75.27
18765;BME280;9511;54.242;12.448;2023-02-21T14:18:15;101231.81;;;8.70;75.11
18765;BME280;9511;54.242;12.448;2023-02-21T14:20:47;101244.88;;;9.35;73.67
18765;BME280;9511;54.242;12.448;2023-02-21T14:23:16;101237.78;;;9.34;72.07
18765;BME280;9511;54.242;12.448;2023-02-21T14:25:54;101239.31;;;9.51;71.37
18765;BME280;9511;54.242;12.448;2023-02-21T14:29:00;101240.28;;;9.53;71.48
18765;BME280;9511;54.242;12.448;2023-02-21T14:31:51;101237.44;;;9.47;71.02
18765;BME280;9511;54.242;12.448;2023-02-21T14:34:26;101238.59;;;9.31;71.34
18765;BME280;9511;54.242;12.448;2023-02-21T14:36:58;101244.72;;;9.08;71.61
18765;BME280;9511;54.242;12.448;2023-02-21T14:39:33;101245.25;;;8.76;72.42
18765;BME280;9511;54.242;12.448;2023-02-21T14:42:20;101257.06;;;8.43;73.26
18765;BME280;9511;54.242;12.448;2023-02-21T14:45:03;101248.81;;;8.14;74.49
18765;BME280;9511;54.242;12.448;2023-02-21T14:47:51;101254.47;;;8.23;75.25
18765;BME280;9511;54.242;12.448;2023-02-21T14:50:29;101250.88;;;8.42;74.78
18765;BME280;9511;54.242;12.448;2023-02-21T14:53:27;101253.06;;;8.32;74.88
18765;BME280;9511;54.242;12.448;2023-02-21T14:59:32;101256.78;;;8.78;74.06
18765;BME280;9511;54.242;12.448;2023-02-21T15:02:15;101253.88;;;8.31;74.49
18765;BME280;9511;54.242;12.448;2023-02-21T15:04:48;101250.47;;;8.12;74.87
18765;BME280;9511;54.242;12.448;2023-02-21T15:07:20;101255.94;;;7.77;75.51
18765;BME280;9511;54.242;12.448;2023-02-21T15:10:14;101260.19;;;7.54;76.63
18765;BME280;9511;54.242;12.448;2023-02-21T15:12:44;101270.00;;;7.38;77.52
18765;BME280;9511;54.242;12.448;2023-02-21T15:15:20;101265.56;;;7.37;78.37
18765;BME280;9511;54.242;12.448;2023-02-21T15:18:02;101271.47;;;7.32;78.23
18765;BME280;9511;54.242;12.448;2023-02-21T15:20:33;101263.44;;;7.29;78.61
18765;BME280;9511;54.242;12.448;2023-02-21T15:23:10;101272.13;;;7.28;77.99
18765;BME280;9511;54.242;12.448;2023-02-21T15:25:38;101272.50;;;7.35;77.90
18765;BME280;9511;54.242;12.448;2023-02-21T15:28:20;101273.41;;;7.36;78.42
18765;BME280;9511;54.242;12.448;2023-02-21T15:31:00;101276.72;;;7.51;78.04
18765;BME280;9511;54.242;12.448;2023-02-21T15:33:31;101264.91;;;7.41;78.48
18765;BME280;9511;54.242;12.448;2023-02-21T15:36:03;101270.78;;;7.36;78.35
18765;BME280;9511;54.242;12.448;2023-02-21T15:38:34;101275.03;;;7.34;78.19
18765;BME280;9511;54.242;12.448;2023-02-21T15:41:06;101277.66;;;7.14;79.09
18765;BME280;9511;54.242;12.448;2023-02-21T15:43:43;101281.13;;;7.13;79.37
18765;BME280;9511;54.242;12.448;2023-02-21T15:46:14;101284.16;;;7.03;79.47
18765;BME280;9511;54.242;12.448;2023-02-21T15:48:43;101289.13;;;6.97;79.62
18765;BME280;9511;54.242;12.448;2023-02-21T15:51:12;101292.56;;;6.96;80.51
18765;BME280;9511;54.242;12.448;2023-02-21T15:53:39;101298.88;;;6.82;80.85
18765;BME280;9511;54.242;12.448;2023-02-21T15:56:21;101297.25;;;6.66;81.05
18765;BME280;9511;54.242;12.448;2023-02-21T15:59:11;101295.41;;;6.65;81.29
18765;BME280;9511;54.242;12.448;2023-02-21T16:01:39;101294.09;;;6.55;82.11
18765;BME280;9511;54.242;12.448;2023-02-21T16:04:16;101299.88;;;6.48;81.96
18765;BME280;9511;54.242;12.448;2023-02-21T16:06:48;101305.63;;;6.41;82.68
18765;BME280;9511;54.242;12.448;2023-02-21T16:09:23;101304.34;;;6.33;83.27
18765;BME280;9511;54.242;12.448;2023-02-21T16:11:53;101300.59;;;6.28;83.23
18765;BME280;9511;54.242;12.448;2023-02-21T16:14:33;101301.47;;;6.28;83.33
18765;BME280;9511;54.242;12.448;2023-02-21T16:17:13;101311.75;;;6.24;83.87
18765;BME280;9511;54.242;12.448;2023-02-21T16:19:45;101309.72;;;6.18;83.87
18765;BME280;9511;54.242;12.448;2023-02-21T16:22:25;101311.13;;;6.11;83.82
18765;BME280;9511;54.242;12.448;2023-02-21T16:25:21;101310.88;;;6.07;84.42
18765;BME280;9511;54.242;12.448;2023-02-21T16:27:51;101315.47;;;6.11;84.47
18765;BME280;9511;54.242;12.448;2023-02-21T16:30:20;101321.50;;;6.08;84.94
18765;BME280;9511;54.242;12.448;2023-02-21T16:32:49;101330.03;;;6.04;85.21
18765;BME280;9511;54.242;12.448;2023-02-21T16:35:20;101330.91;;;6.05;85.28
18765;BME280;9511;54.242;12.448;2023-02-21T16:37:51;101330.03;;;6.04;85.71
18765;BME280;9511;54.242;12.448;2023-02-21T16:40:21;101337.06;;;6.05;85.57
18765;BME280;9511;54.242;12.448;2023-02-21T16:42:51;101341.50;;;6.06;86.29
18765;BME280;9511;54.242;12.448;2023-02-21T16:45:18;101347.56;;;6.05;86.35
18765;BME280;9511;54.242;12.448;2023-02-21T16:47:47;101343.97;;;6.03;86.40
18765;BME280;9511;54.242;12.448;2023-02-21T16:50:17;101348.16;;;6.00;86.55
18765;BME280;9511;54.242;12.448;2023-02-21T16:52:45;101352.50;;;5.99;86.71
18765;BME280;9511;54.242;12.448;2023-02-21T16:55:15;101348.16;;;6.00;86.98
18765;BME280;9511;54.242;12.448;2023-02-21T16:57:46;101355.78;;;5.95;87.18
18765;BME280;9511;54.242;12.448;2023-02-21T17:00:15;101353.34;;;5.98;87.17
18765;BME280;9511;54.242;12.448;2023-02-21T17:02:44;101356.28;;;6.04;87.10
18765;BME280;9511;54.242;12.448;2023-02-21T17:05:11;101362.59;;;6.08;86.72
18765;BME280;9511;54.242;12.448;2023-02-21T17:07:39;101370.38;;;6.06;87.02
18765;BME280;9511;54.242;12.448;2023-02-21T17:10:07;101372.03;;;6.04;86.85
18765;BME280;9511;54.242;12.448;2023-02-21T17:12:36;101369.47;;;6.06;86.92
18765;BME280;9511;54.242;12.448;2023-02-21T17:15:03;101372.09;;;6.06;86.78
18765;BME280;9511;54.242;12.448;2023-02-21T17:17:31;101376.31;;;6.02;86.73
18765;BME280;9511;54.242;12.448;2023-02-21T17:19:58;101383.25;;;6.02;86.70
18765;BME280;9511;54.242;12.448;2023-02-21T17:22:25;101379.00;;;6.04;86.72
18765;BME280;9511;54.242;12.448;2023-02-21T17:24:53;101378.00;;;6.02;86.77
18765;BME280;9511;54.242;12.448;2023-02-21T17:27:21;101377.94;;;6.00;87.10
18765;BME280;9511;54.242;12.448;2023-02-21T17:29:49;101385.88;;;6.02;86.95
18765;BME280;9511;54.242;12.448;2023-02-21T17:32:16;101382.38;;;6.01;87.16
18765;BME280;9511;54.242;12.448;2023-02-21T17:34:44;101384.19;;;6.02;87.10
18765;BME280;9511;54.242;12.448;2023-02-21T17:37:11;101392.22;;;6.05;87.35
18765;BME280;9511;54.242;12.448;2023-02-21T17:39:38;101390.56;;;6.07;87.01